Terminal Aerodrome Forecast
Issued by NWS

Current Version | Previous Version | Text Only | Print | Product List | Glossary Off
Versions: 1 2 3 4 5 6 7 8 9 10 11 12 13 14 15 16 17 18

000
FTUS41 KILN 271752
TAFLCK
TAF
KLCK 271752Z 2718/2818 20006KT P6SM SCT035 BKN200
     FM272300 12004KT P6SM VCSH FEW040 BKN120
     FM280300 13003KT 5SM -SHRA BR BKN040 OVC200
     FM280800 09006KT 5SM -SHRA BR OVC015
     FM281100 10006KT 5SM BR VCSH OVC009
     FM281400 36009KT P6SM OVC009=

USA.gov is the U.S. government's official web portal to all federal, state and local government web resources and services.